Fulton, Iowa
Current Conditions -  °F | °C
As of 8:53 AM on Wednesday 22 Oct 2014 (Local Time) from KDBQ Reporting Station
Clear Clear  
Wind Chill: 36°   Ceiling: Unl
Heat Index: 40°   Visibility: 10mi
Dew Point: 37°   Wind: 6mph
Humidity: 89%   Direction: 170°S
Pressure: 30.33"   Gusts: NA
Location:  42.12°N, 90.7234°W
Report Text: KDBQ 221353Z 17005KT 10SM CLR 04/03 A3033 RMK AO2 SLP279 T00440028
Loading
Personal Weather Stations






























Interactive Weather Map
Tropical Storm Tracking
New forecast layout! Learn more

10-Day Weather Forecast

Advertisements
Track Severe Weather on mobile